Time;durP1;ratioP1;P1;durP2;ratioP2;P2;SDS_P1;SDS_P2;PMS_P1;PMS_P2;Temp;Humidity;BMP_temperature;BMP_pressure;BME280_temperature;BME280_humidity;BME280_pressure;Samples;Min_cycle;Max_cycle;Signal;HPM_P1;HPM_P2
2021/10/19 00:00:20;;;;;;;20.83;11.93;;;7.70;99.90;;;;;;5071171;28;20516;-58
2021/10/19 00:02:46;;;;;;;19.60;11.43;;;7.50;99.90;;;;;;5071700;28;20447;-58
2021/10/19 00:05:14;;;;;;;22.10;11.50;;;7.50;99.90;;;;;;5071585;28;20953;-58
2021/10/19 00:07:42;;;;;;;23.30;13.10;;;7.40;99.90;;;;;;5071549;28;20448;-58
2021/10/19 00:10:11;;;;;;;20.77;11.90;;;7.30;99.90;;;;;;5071042;28;20478;-58
2021/10/19 00:12:41;;;;;;;19.60;12.07;;;7.30;99.90;;;;;;5071136;28;20451;-58
2021/10/19 00:15:10;;;;;;;20.53;11.77;;;7.20;99.90;;;;;;5071115;28;20952;-58
2021/10/19 00:17:37;;;;;;;18.37;10.63;;;7.10;99.90;;;;;;5071047;28;20455;-58
2021/10/19 00:20:05;;;;;;;18.47;10.10;;;7.00;99.90;;;;;;5071090;28;20471;-58
2021/10/19 00:22:32;;;;;;;19.00;11.27;;;7.10;99.90;;;;;;5070782;28;20478;-58
2021/10/19 00:25:04;;;;;;;12.73;8.30;;;7.10;99.90;;;;;;5071169;28;20453;-58
2021/10/19 00:27:31;;;;;;;15.90;9.20;;;7.10;99.90;;;;;;5070379;28;20465;-58
2021/10/19 00:30:00;;;;;;;20.37;10.20;;;7.10;99.90;;;;;;5068486;28;21040;-58
2021/10/19 00:32:27;;;;;;;22.73;11.23;;;7.20;99.90;;;;;;5070958;28;20869;-58
2021/10/19 00:34:54;;;;;;;20.57;11.57;;;7.30;99.90;;;;;;5071189;28;20451;-58
2021/10/19 00:37:21;;;;;;;20.50;11.20;;;7.40;99.90;;;;;;5071264;28;20450;-58
2021/10/19 00:39:48;;;;;;;21.30;11.87;;;7.40;99.90;;;;;;5071449;28;20520;-58
2021/10/19 00:42:15;;;;;;;24.80;12.40;;;7.30;99.90;;;;;;5070671;28;20482;-58
2021/10/19 00:44:43;;;;;;;22.37;12.00;;;7.40;99.90;;;;;;5074095;28;20446;-58
2021/10/19 00:47:18;;;;;;;23.30;13.17;;;7.40;99.90;;;;;;5075072;28;20524;-58
2021/10/19 00:49:45;;;;;;;22.33;12.97;;;7.60;99.90;;;;;;5074381;28;20488;-58
2021/10/19 00:52:13;;;;;;;25.37;13.17;;;7.70;99.90;;;;;;5074585;28;20504;-58
2021/10/19 00:54:40;;;;;;;20.53;12.13;;;7.80;99.90;;;;;;5074707;28;20454;-58
2021/10/19 00:57:08;;;;;;;19.57;11.80;;;7.80;99.90;;;;;;5074099;28;20477;-58
2021/10/19 00:59:37;;;;;;;18.83;11.90;;;7.90;99.90;;;;;;5054519;28;20459;-58
2021/10/19 01:02:04;;;;;;;18.43;10.50;;;8.00;99.90;;;;;;5064591;28;20553;-58
2021/10/19 01:04:32;;;;;;;16.33;10.17;;;8.00;99.90;;;;;;5074018;28;20447;-58
2021/10/19 01:07:01;;;;;;;16.70;9.90;;;8.00;99.90;;;;;;5074569;28;20451;-58
2021/10/19 01:09:28;;;;;;;17.23;10.20;;;8.00;99.90;;;;;;5074496;28;20536;-58
2021/10/19 01:11:56;;;;;;;16.27;9.60;;;8.00;99.90;;;;;;5073738;28;20450;-58
2021/10/19 01:14:23;;;;;;;15.20;9.30;;;8.10;99.90;;;;;;5074395;28;20474;-58
2021/10/19 01:16:50;;;;;;;12.80;7.20;;;8.10;99.90;;;;;;5074206;28;20449;-58
2021/10/19 01:19:22;;;;;;;11.93;6.77;;;8.30;99.90;;;;;;5073604;28;20888;-58
2021/10/19 01:21:52;;;;;;;12.20;7.13;;;8.40;99.90;;;;;;5073821;28;20489;-58
2021/10/19 01:24:20;;;;;;;13.50;7.50;;;8.70;99.90;;;;;;5074133;28;20448;-58
2021/10/19 01:26:46;;;;;;;12.47;7.93;;;8.60;99.90;;;;;;5073707;28;20454;-58
2021/10/19 01:29:14;;;;;;;12.30;7.57;;;8.70;99.90;;;;;;5073916;28;20466;-58
2021/10/19 01:31:45;;;;;;;12.40;7.97;;;8.60;99.90;;;;;;5073810;28;20894;-58
2021/10/19 01:34:12;;;;;;;11.10;7.30;;;8.50;99.90;;;;;;5073274;28;20454;-58
2021/10/19 01:36:39;;;;;;;10.33;6.80;;;8.30;99.90;;;;;;5073859;28;20508;-58
2021/10/19 01:39:07;;;;;;;11.90;6.70;;;8.30;99.90;;;;;;5073926;28;20525;-58
2021/10/19 01:41:35;;;;;;;10.53;7.17;;;8.20;99.90;;;;;;5073113;28;20547;-58
2021/10/19 01:44:02;;;;;;;11.07;7.63;;;8.00;99.90;;;;;;5073471;28;20458;-59
2021/10/19 01:46:29;;;;;;;9.13;6.20;;;7.90;99.90;;;;;;5073725;28;20450;-58
2021/10/19 01:48:56;;;;;;;12.43;6.13;;;7.80;99.90;;;;;;5072822;28;20486;-58
2021/10/19 01:51:24;;;;;;;13.90;7.10;;;7.90;99.90;;;;;;5072698;28;20451;-59
2021/10/19 01:53:51;;;;;;;12.10;6.50;;;7.90;99.90;;;;;;5073327;28;20459;-59
2021/10/19 01:56:19;;;;;;;9.90;6.60;;;7.90;99.90;;;;;;5072037;28;20446;-59
2021/10/19 01:58:46;;;;;;;12.57;6.30;;;7.90;99.90;;;;;;5073672;28;20467;-59
2021/10/19 02:01:13;;;;;;;11.83;5.23;;;7.80;99.90;;;;;;5073368;28;20543;-59
2021/10/19 02:03:40;;;;;;;9.43;5.67;;;7.80;99.90;;;;;;5073421;28;20451;-58
2021/10/19 02:06:07;;;;;;;10.57;6.60;;;7.70;99.90;;;;;;5072809;28;20802;-58
2021/10/19 02:08:35;;;;;;;11.03;6.20;;;7.80;99.90;;;;;;5073333;28;20528;-58
2021/10/19 02:11:02;;;;;;;10.03;5.77;;;7.90;99.90;;;;;;5072661;28;20450;-59
2021/10/19 02:13:30;;;;;;;11.60;5.30;;;7.90;99.90;;;;;;5073224;28;20512;-59
2021/10/19 02:15:57;;;;;;;9.90;5.60;;;7.70;99.90;;;;;;5073396;28;20450;-59
2021/10/19 02:18:24;;;;;;;9.10;5.80;;;7.40;99.90;;;;;;5073346;28;20470;-58
2021/10/19 02:20:51;;;;;;;10.37;6.03;;;7.40;99.90;;;;;;5072246;28;20455;-58
2021/10/19 02:23:18;;;;;;;11.80;5.70;;;7.40;99.90;;;;;;5072980;28;20494;-58
2021/10/19 02:25:46;;;;;;;6.87;4.87;;;7.40;99.90;;;;;;5072932;28;20504;-58
2021/10/19 02:28:13;;;;;;;8.23;5.20;;;7.50;99.90;;;;;;5072725;28;20451;-58
2021/10/19 02:30:43;;;;;;;8.60;5.20;;;7.40;99.90;;;;;;5072676;28;20449;-58
2021/10/19 02:33:10;;;;;;;8.20;5.00;;;7.00;99.90;;;;;;5073208;28;20971;-58
2021/10/19 02:35:37;;;;;;;7.07;5.10;;;7.00;99.90;;;;;;5073225;28;21021;-58
2021/10/19 02:38:04;;;;;;;9.10;5.03;;;7.10;99.90;;;;;;5074459;28;20447;-58
2021/10/19 02:40:31;;;;;;;10.10;6.53;;;7.20;99.90;;;;;;5080028;28;20457;-58
2021/10/19 02:42:58;;;;;;;18.27;9.83;;;7.10;99.90;;;;;;5087247;28;20485;-59
2021/10/19 02:45:25;;;;;;;29.67;14.00;;;7.30;99.90;;;;;;5087685;28;20451;-58
2021/10/19 02:47:53;;;;;;;39.73;18.70;;;7.40;99.90;;;;;;5086927;28;20454;-60
2021/10/19 02:50:20;;;;;;;44.60;21.53;;;7.80;99.90;;;;;;5072021;28;20478;-58
2021/10/19 02:52:47;;;;;;;56.27;24.10;;;7.90;99.90;;;;;;5070843;28;20488;-58
2021/10/19 02:57:43;;;;;;;53.17;25.47;;;7.80;99.90;;;;;;5077026;22;20521;-54
2021/10/19 03:00:11;;;;;;;59.97;25.13;;;7.80;99.90;;;;;;5062885;28;20951;-53
2021/10/19 03:02:38;;;;;;;61.57;25.93;;;7.80;99.90;;;;;;5072498;28;20478;-54
2021/10/19 03:05:08;;;;;;;59.93;24.80;;;7.90;99.90;;;;;;5070763;28;20449;-54
2021/10/19 03:07:35;;;;;;;53.70;25.50;;;8.00;99.90;;;;;;5056915;28;20467;-53
2021/10/19 03:10:02;;;;;;;54.60;23.93;;;8.00;99.90;;;;;;5060485;28;20455;-54
2021/10/19 03:12:29;;;;;;;49.50;23.80;;;8.10;99.90;;;;;;5052119;28;20939;-54
2021/10/19 03:14:56;;;;;;;63.83;27.70;;;8.20;99.90;;;;;;5052784;28;20508;-54
2021/10/19 03:17:23;;;;;;;56.77;25.40;;;8.10;99.90;;;;;;5058377;28;20497;-54
2021/10/19 03:19:50;;;;;;;54.90;23.37;;;8.10;99.90;;;;;;5052636;28;20940;-54
2021/10/19 03:22:18;;;;;;;42.33;22.87;;;8.20;99.90;;;;;;5052115;28;21066;-54
2021/10/19 03:24:45;;;;;;;38.00;19.40;;;8.20;99.90;;;;;;5052352;28;20569;-54
2021/10/19 03:27:12;;;;;;;35.37;16.40;;;8.20;99.90;;;;;;5052473;28;20459;-54
2021/10/19 03:29:40;;;;;;;32.93;15.93;;;8.30;99.90;;;;;;5052899;28;20439;-54
2021/10/19 03:32:07;;;;;;;28.70;14.97;;;8.20;99.90;;;;;;5053438;28;20452;-54
2021/10/19 03:34:35;;;;;;;28.60;14.33;;;8.10;99.90;;;;;;5052506;28;20459;-54
2021/10/19 03:37:02;;;;;;;30.87;15.87;;;8.10;99.90;;;;;;5052703;28;20529;-54
2021/10/19 03:39:30;;;;;;;30.20;16.00;;;8.10;99.90;;;;;;5056370;28;20964;-54
2021/10/19 03:41:57;;;;;;;28.43;15.17;;;8.10;99.90;;;;;;5051733;28;20475;-54
2021/10/19 03:44:24;;;;;;;30.57;16.30;;;8.10;99.90;;;;;;5052370;28;20506;-54
2021/10/19 03:46:51;;;;;;;33.30;15.93;;;8.20;99.90;;;;;;5053224;28;20474;-54
2021/10/19 03:49:18;;;;;;;29.60;15.67;;;8.20;99.90;;;;;;5069274;28;20455;-54
2021/10/19 03:51:45;;;;;;;33.27;15.73;;;8.00;99.90;;;;;;5051571;28;20443;-54
2021/10/19 03:54:12;;;;;;;25.20;13.60;;;8.00;99.90;;;;;;5051615;28;20448;-54
2021/10/19 03:56:41;;;;;;;32.03;16.90;;;8.10;99.90;;;;;;5051620;28;20472;-53
2021/10/19 03:59:08;;;;;;;31.93;16.13;;;8.20;99.90;;;;;;5052047;28;20450;-54
2021/10/19 04:01:35;;;;;;;31.33;15.33;;;8.20;99.90;;;;;;5051487;28;20454;-54
2021/10/19 04:04:02;;;;;;;33.67;15.60;;;8.20;99.90;;;;;;5058939;28;20454;-54
2021/10/19 04:06:29;;;;;;;29.17;14.60;;;8.20;99.90;;;;;;5071637;28;20535;-54
2021/10/19 04:08:56;;;;;;;32.40;15.27;;;8.10;99.90;;;;;;5061239;28;20542;-53
2021/10/19 04:11:23;;;;;;;28.50;12.93;;;8.00;99.90;;;;;;5051445;28;20451;-54
2021/10/19 04:13:51;;;;;;;32.37;15.43;;;8.00;99.90;;;;;;5051776;28;20827;-54
2021/10/19 04:16:19;;;;;;;40.83;16.10;;;8.00;99.90;;;;;;5051729;28;20521;-54
2021/10/19 04:18:46;;;;;;;34.80;17.60;;;8.00;99.90;;;;;;5053798;28;20496;-54
2021/10/19 04:21:13;;;;;;;38.57;16.57;;;8.10;99.90;;;;;;5055774;28;20451;-54
2021/10/19 04:23:40;;;;;;;33.63;15.57;;;8.10;99.90;;;;;;5063442;28;20538;-54
2021/10/19 04:26:07;;;;;;;29.03;14.53;;;8.00;99.90;;;;;;5075581;28;20478;-54
2021/10/19 04:28:34;;;;;;;31.83;15.13;;;7.90;99.90;;;;;;5075629;28;20450;-54
2021/10/19 04:31:02;;;;;;;36.80;16.77;;;8.00;99.90;;;;;;5075282;28;20447;-54
2021/10/19 04:33:29;;;;;;;40.37;17.40;;;8.00;99.90;;;;;;5075641;28;20464;-54
2021/10/19 04:35:56;;;;;;;36.97;17.33;;;8.00;99.90;;;;;;5075607;28;20524;-54
2021/10/19 04:38:23;;;;;;;38.43;17.80;;;8.10;99.90;;;;;;5075349;28;20446;-54
2021/10/19 04:40:50;;;;;;;45.73;18.20;;;7.90;99.90;;;;;;5055407;28;20458;-54
2021/10/19 04:43:17;;;;;;;41.27;18.40;;;7.90;99.90;;;;;;5054719;28;20532;-53
2021/10/19 04:45:44;;;;;;;40.80;18.33;;;7.90;99.90;;;;;;5054954;28;20520;-54
2021/10/19 04:48:14;;;;;;;40.20;17.57;;;8.00;99.90;;;;;;5054728;28;20937;-53
2021/10/19 04:50:44;;;;;;;35.57;16.33;;;8.00;99.90;;;;;;5054920;28;20839;-53
2021/10/19 04:53:11;;;;;;;32.63;16.70;;;8.10;99.90;;;;;;5054921;28;20444;-54
2021/10/19 04:55:41;;;;;;;34.03;17.33;;;8.10;99.90;;;;;;5064814;28;20980;-54
2021/10/19 04:58:08;;;;;;;40.33;17.10;;;8.10;99.90;;;;;;5075364;28;20508;-54
2021/10/19 05:00:35;;;;;;;34.50;16.67;;;8.10;99.90;;;;;;5066529;28;20454;-53
2021/10/19 05:03:02;;;;;;;31.23;14.50;;;8.10;99.90;;;;;;5054751;28;20486;-53
2021/10/19 05:05:30;;;;;;;27.63;14.33;;;8.00;99.90;;;;;;5053467;28;20473;-54
2021/10/19 05:07:57;;;;;;;28.23;14.27;;;7.80;99.90;;;;;;5054784;28;20448;-54
2021/10/19 05:10:24;;;;;;;25.97;14.50;;;7.90;99.90;;;;;;5054996;28;20505;-54
2021/10/19 05:12:51;;;;;;;27.73;13.97;;;7.90;99.90;;;;;;5074686;28;20454;-54
2021/10/19 05:15:21;;;;;;;26.80;13.10;;;7.90;99.90;;;;;;5054094;28;20454;-54
2021/10/19 05:17:48;;;;;;;31.40;13.77;;;7.90;99.90;;;;;;5054776;28;20452;-54
2021/10/19 05:20:15;;;;;;;27.93;13.40;;;7.90;99.90;;;;;;5065318;28;20518;-54
2021/10/19 05:22:43;;;;;;;23.63;13.10;;;7.90;99.90;;;;;;5053731;28;20471;-54
2021/10/19 05:25:12;;;;;;;27.80;13.13;;;7.80;99.90;;;;;;5054454;28;20510;-54
2021/10/19 05:27:39;;;;;;;23.80;13.20;;;7.90;99.90;;;;;;5055401;28;20474;-54
2021/10/19 05:30:09;;;;;;;28.77;14.60;;;7.90;99.90;;;;;;5054677;28;20881;-53
2021/10/19 05:32:36;;;;;;;31.33;16.70;;;8.00;99.90;;;;;;5054291;28;20447;-54
2021/10/19 05:35:04;;;;;;;33.83;17.10;;;8.00;99.90;;;;;;5054215;28;20509;-54
2021/10/19 05:37:31;;;;;;;36.73;19.17;;;8.00;99.90;;;;;;5054164;28;20898;-54
2021/10/19 05:39:59;;;;;;;36.30;18.37;;;8.00;99.90;;;;;;5053767;28;20453;-54
2021/10/19 05:42:26;;;;;;;37.80;18.93;;;8.00;99.90;;;;;;5054707;28;20566;-54
2021/10/19 05:44:53;;;;;;;35.93;18.33;;;8.10;99.90;;;;;;5054510;28;20459;-54
2021/10/19 05:47:20;;;;;;;36.50;18.50;;;8.20;99.90;;;;;;5053830;28;20467;-54
2021/10/19 05:49:47;;;;;;;40.10;21.87;;;8.00;99.90;;;;;;5053950;28;21015;-54
2021/10/19 05:52:14;;;;;;;44.40;20.10;;;8.00;99.90;;;;;;5053775;28;20455;-54
2021/10/19 05:54:41;;;;;;;32.87;17.13;;;8.10;99.90;;;;;;5054088;28;20443;-54
2021/10/19 05:57:10;;;;;;;28.40;15.63;;;8.10;99.90;;;;;;5053121;28;20558;-54
2021/10/19 05:59:37;;;;;;;28.77;15.30;;;8.10;99.90;;;;;;5053934;28;20459;-54
2021/10/19 06:02:04;;;;;;;33.83;17.27;;;8.10;99.90;;;;;;5056524;28;20512;-54
2021/10/19 06:04:31;;;;;;;30.90;16.50;;;8.20;99.90;;;;;;5054497;28;20447;-54
2021/10/19 06:06:59;;;;;;;28.77;16.00;;;8.30;99.90;;;;;;5060885;28;20521;-54
2021/10/19 06:09:27;;;;;;;29.97;16.27;;;8.40;99.90;;;;;;5053218;28;20448;-53
2021/10/19 06:11:55;;;;;;;32.90;18.00;;;8.40;99.90;;;;;;5053976;28;20525;-54
2021/10/19 06:14:24;;;;;;;33.30;16.10;;;8.40;99.90;;;;;;5054077;28;20509;-54
2021/10/19 06:16:52;;;;;;;32.97;16.50;;;8.40;99.90;;;;;;5054716;28;20501;-54
2021/10/19 06:19:19;;;;;;;34.17;16.83;;;8.40;99.90;;;;;;5054022;28;20448;-55
2021/10/19 06:21:46;;;;;;;33.70;18.00;;;8.20;99.90;;;;;;5053112;28;20846;-54
2021/10/19 06:24:13;;;;;;;30.23;17.90;;;8.30;99.90;;;;;;5049960;28;20487;-54
2021/10/19 06:26:41;;;;;;;34.10;17.90;;;8.30;99.90;;;;;;5052120;28;20467;-53
2021/10/19 06:29:09;;;;;;;33.30;17.87;;;8.40;99.90;;;;;;5053288;28;20458;-54
2021/10/19 06:31:38;;;;;;;39.93;18.57;;;8.40;99.90;;;;;;5053528;28;20451;-54
2021/10/19 06:34:06;;;;;;;32.33;17.90;;;8.30;99.90;;;;;;5052579;28;20450;-54
2021/10/19 06:36:33;;;;;;;30.80;15.67;;;8.40;99.90;;;;;;5051685;28;20478;-54
2021/10/19 06:39:00;;;;;;;31.57;17.10;;;8.40;99.90;;;;;;5056257;28;20454;-55
2021/10/19 06:41:27;;;;;;;26.63;15.60;;;8.40;99.90;;;;;;5049530;28;20455;-54
2021/10/19 06:43:54;;;;;;;27.70;15.20;;;8.50;99.90;;;;;;5056261;28;20541;-53
2021/10/19 06:46:21;;;;;;;34.70;15.87;;;8.60;99.90;;;;;;5051987;28;20475;-54
2021/10/19 06:48:49;;;;;;;28.90;15.47;;;8.70;99.90;;;;;;5050336;28;20874;-54
2021/10/19 06:51:16;;;;;;;29.90;15.40;;;8.80;99.90;;;;;;5051698;28;20454;-54
2021/10/19 06:53:43;;;;;;;32.20;16.40;;;9.00;99.90;;;;;;5051112;28;20444;-54
2021/10/19 06:56:10;;;;;;;26.73;15.30;;;9.00;99.90;;;;;;5051207;28;20892;-53
2021/10/19 06:58:37;;;;;;;29.47;15.13;;;9.00;99.90;;;;;;5051135;28;20938;-53
2021/10/19 07:01:05;;;;;;;25.23;15.27;;;9.10;99.90;;;;;;5052231;28;20452;-53
2021/10/19 07:03:33;;;;;;;27.60;15.53;;;9.20;99.90;;;;;;5056633;28;20613;-54
2021/10/19 07:06:05;;;;;;;26.83;15.00;;;9.30;99.90;;;;;;5072602;28;20470;-53
2021/10/19 07:08:33;;;;;;;25.17;15.20;;;9.30;99.90;;;;;;5072460;28;20477;-53
2021/10/19 07:11:00;;;;;;;25.07;15.10;;;9.40;99.90;;;;;;5072308;28;20447;-53
2021/10/19 07:13:27;;;;;;;34.50;16.80;;;9.40;99.90;;;;;;5072532;28;20504;-53
2021/10/19 07:15:54;;;;;;;27.83;15.90;;;9.40;99.90;;;;;;5072182;28;20992;-54
2021/10/19 07:18:22;;;;;;;32.13;16.40;;;9.50;99.90;;;;;;5072487;28;20503;-54
2021/10/19 07:20:50;;;;;;;27.73;16.40;;;9.50;99.90;;;;;;5053614;28;20447;-54
2021/10/19 07:23:19;;;;;;;25.10;14.93;;;9.70;99.90;;;;;;5052475;28;20488;-53
2021/10/19 07:25:49;;;;;;;23.10;12.43;;;9.70;99.90;;;;;;5052220;28;20901;-54
2021/10/19 07:28:16;;;;;;;22.27;13.00;;;9.90;99.90;;;;;;5051910;28;20447;-54
2021/10/19 07:30:43;;;;;;;24.23;14.47;;;10.10;99.90;;;;;;5051940;28;20880;-54
2021/10/19 07:33:12;;;;;;;23.10;13.63;;;10.20;99.90;;;;;;5055746;28;20491;-54
2021/10/19 07:35:42;;;;;;;27.40;15.33;;;10.00;99.90;;;;;;5047649;28;20544;-54
2021/10/19 07:38:09;;;;;;;24.00;14.40;;;9.90;99.90;;;;;;5052386;28;20517;-54
2021/10/19 07:40:40;;;;;;;28.87;14.90;;;10.00;99.90;;;;;;5051877;28;20530;-54
2021/10/19 07:43:08;;;;;;;25.97;15.10;;;10.10;99.90;;;;;;5051687;28;20533;-54
2021/10/19 07:45:36;;;;;;;22.47;14.00;;;10.20;99.90;;;;;;5051825;28;20452;-54
2021/10/19 07:48:03;;;;;;;21.93;13.47;;;10.30;99.90;;;;;;5062455;28;20459;-54
2021/10/19 07:50:30;;;;;;;24.57;13.33;;;10.30;99.90;;;;;;5053686;28;20443;-54
2021/10/19 07:52:57;;;;;;;21.30;13.30;;;10.30;99.90;;;;;;5054081;28;20482;-54
2021/10/19 07:55:26;;;;;;;23.53;14.17;;;10.40;99.90;;;;;;5067293;28;20451;-54
2021/10/19 07:57:55;;;;;;;23.77;14.23;;;10.20;99.90;;;;;;5071978;28;20504;-54
2021/10/19 08:00:24;;;;;;;22.43;13.50;;;10.30;99.90;;;;;;5059009;28;20456;-54
2021/10/19 08:02:52;;;;;;;22.20;13.13;;;10.30;99.90;;;;;;5051758;28;21201;-54
2021/10/19 08:05:20;;;;;;;17.77;11.17;;;10.40;99.90;;;;;;5051845;28;20999;-54
2021/10/19 08:07:49;;;;;;;17.03;11.40;;;10.40;99.90;;;;;;5061261;28;20444;-54
2021/10/19 08:10:18;;;;;;;15.80;10.47;;;10.40;99.90;;;;;;5031787;28;20448;-54
2021/10/19 08:12:46;;;;;;;24.20;11.33;;;10.40;99.90;;;;;;5035688;28;20533;-54
2021/10/19 08:15:15;;;;;;;17.93;10.70;;;10.30;99.90;;;;;;5062299;28;20872;-54
2021/10/19 08:17:42;;;;;;;16.83;10.77;;;10.30;99.90;;;;;;5051485;28;20476;-54
2021/10/19 08:20:10;;;;;;;18.57;10.30;;;10.20;99.90;;;;;;5050271;28;20880;-53
2021/10/19 08:22:37;;;;;;;16.47;10.40;;;10.30;99.90;;;;;;5055402;28;20452;-54
2021/10/19 08:25:07;;;;;;;20.00;11.10;;;10.50;99.90;;;;;;5049248;28;21096;-54
2021/10/19 08:27:35;;;;;;;17.70;10.60;;;10.70;99.90;;;;;;5056823;28;20961;-54
2021/10/19 08:30:03;;;;;;;15.03;9.50;;;10.90;99.90;;;;;;5051728;28;20452;-53
2021/10/19 08:32:32;;;;;;;12.47;8.63;;;11.10;99.90;;;;;;5071250;28;20447;-54
2021/10/19 08:34:59;;;;;;;15.50;9.20;;;11.40;99.90;;;;;;5053260;28;20451;-54
2021/10/19 08:37:27;;;;;;;12.45;8.15;;;11.70;99.90;;;;;;5049317;28;20337;-53
2021/10/19 08:39:54;;;;;;;8.30;6.47;;;12.00;99.90;;;;;;5044508;28;20210;-54
2021/10/19 08:42:22;;;;;;;9.67;6.30;;;12.20;99.90;;;;;;5049534;28;20505;-53
2021/10/19 08:44:50;;;;;;;8.20;6.07;;;12.50;99.90;;;;;;5049341;28;20479;-54
2021/10/19 08:47:17;;;;;;;8.57;6.73;;;12.60;99.90;;;;;;5050902;28;20479;-55
2021/10/19 08:49:46;;;;;;;12.47;7.20;;;12.80;99.90;;;;;;5047882;28;20513;-54
2021/10/19 08:52:13;;;;;;;11.13;7.37;;;12.90;99.90;;;;;;5049608;28;20452;-54
2021/10/19 08:54:41;;;;;;;8.07;6.00;;;12.90;99.90;;;;;;5049865;28;20495;-53
2021/10/19 08:57:14;;;;;;;5.33;3.87;;;13.00;99.90;;;;;;5073277;22;20483;-59
2021/10/19 08:59:44;;;;;;;10.90;4.93;;;12.80;99.90;;;;;;5047066;28;20459;-59
2021/10/19 09:02:12;;;;;;;10.00;4.67;;;12.80;99.90;;;;;;5048634;28;20513;-59
2021/10/19 09:04:42;;;;;;;7.80;4.60;;;12.90;99.90;;;;;;5050888;28;20534;-59
2021/10/19 09:07:11;;;;;;;8.03;5.40;;;13.00;99.90;;;;;;5053781;28;20475;-59
2021/10/19 09:09:39;;;;;;;6.30;4.50;;;13.10;99.90;;;;;;5034658;28;20502;-59
2021/10/19 09:12:07;;;;;;;8.37;4.27;;;12.90;99.90;;;;;;5053303;28;20485;-58
2021/10/19 09:14:37;;;;;;;10.43;5.60;;;12.90;99.90;;;;;;5054269;28;20505;-59
2021/10/19 09:17:05;;;;;;;13.03;4.93;;;13.00;99.90;;;;;;5053621;28;20515;-59
2021/10/19 09:19:34;;;;;;;8.73;5.60;;;13.00;99.90;;;;;;5043638;28;20463;-60
2021/10/19 09:22:04;;;;;;;6.70;5.07;;;13.00;99.90;;;;;;5052649;28;20456;-58
2021/10/19 09:24:38;;;;;;;7.07;4.90;;;12.90;99.90;;;;;;5052621;28;20495;-59
2021/10/19 09:27:07;;;;;;;7.63;4.70;;;12.90;99.90;;;;;;5040436;28;20488;-59
2021/10/19 09:29:37;;;;;;;10.03;4.63;;;12.80;99.90;;;;;;5057284;28;20890;-59
2021/10/19 09:32:07;;;;;;;6.57;4.77;;;12.90;99.90;;;;;;5048545;28;20895;-59
2021/10/19 09:34:36;;;;;;;8.82;5.35;;;13.00;99.90;;;;;;5049135;28;20451;-58
2021/10/19 09:37:05;;;;;;;8.90;4.87;;;13.20;99.90;;;;;;5051481;28;20264;-58
2021/10/19 09:39:39;;;;;;;12.13;4.80;;;13.20;99.90;;;;;;5044144;28;20471;-59
2021/10/19 09:42:08;;;;;;;5.83;4.37;;;13.20;99.90;;;;;;5043802;28;21012;-58
2021/10/19 09:44:36;;;;;;;14.27;4.97;;;13.20;99.90;;;;;;5045497;28;20472;-59
2021/10/19 09:47:04;;;;;;;7.77;5.13;;;13.10;99.90;;;;;;5046091;28;20879;-58
2021/10/19 09:49:32;;;;;;;8.40;5.40;;;13.20;99.90;;;;;;5042501;28;20988;-59
2021/10/19 09:52:00;;;;;;;8.70;5.40;;;13.30;99.90;;;;;;5043865;28;20469;-59
2021/10/19 09:54:31;;;;;;;8.80;5.50;;;13.30;99.90;;;;;;5045540;28;20464;-60
2021/10/19 09:56:59;;;;;;;6.73;4.97;;;13.50;99.90;;;;;;5044272;28;20571;-59
2021/10/19 09:59:27;;;;;;;9.10;5.10;;;13.60;99.90;;;;;;5045504;28;20456;-59
2021/10/19 10:01:55;;;;;;;7.47;5.40;;;13.80;99.90;;;;;;5043669;28;20594;-58
2021/10/19 10:04:22;;;;;;;7.40;5.03;;;13.90;99.90;;;;;;5043903;28;20490;-59
2021/10/19 10:06:50;;;;;;;6.63;4.67;;;14.10;99.90;;;;;;5045114;28;20502;-59
2021/10/19 10:09:18;;;;;;;6.57;5.17;;;14.10;99.90;;;;;;5048485;28;20554;-60
2021/10/19 10:11:46;;;;;;;5.63;5.03;;;14.20;99.90;;;;;;5043882;28;20459;-59
2021/10/19 10:14:14;;;;;;;8.27;4.77;;;14.40;99.90;;;;;;5043925;28;20456;-59
2021/10/19 10:16:47;;;;;;;7.53;5.43;;;14.60;99.90;;;;;;5042924;28;20479;-59
2021/10/19 10:19:15;;;;;;;13.10;7.03;;;14.60;99.90;;;;;;5043489;28;20455;-60
2021/10/19 10:21:48;;;;;;;13.03;8.43;;;14.50;99.90;;;;;;5043859;28;20465;-59
2021/10/19 10:24:26;;;;;;;15.97;10.80;;;14.60;99.90;;;;;;5042145;28;20484;-60
2021/10/19 10:27:03;;;;;;;14.30;10.27;;;14.70;99.90;;;;;;5045105;28;20488;-60
2021/10/19 10:29:39;;;;;;;16.50;10.10;;;14.70;99.90;;;;;;5047654;28;20472;-59
2021/10/19 10:32:07;;;;;;;16.90;9.70;;;14.80;99.90;;;;;;5042656;28;21034;-59
2021/10/19 10:34:34;;;;;;;16.83;9.67;;;15.00;99.90;;;;;;5043219;28;20554;-59
2021/10/19 10:37:10;;;;;;;14.97;10.40;;;15.00;99.90;;;;;;5042548;28;20490;-59
2021/10/19 10:39:38;;;;;;;18.10;11.00;;;14.90;99.90;;;;;;5043139;28;20463;-59
2021/10/19 10:42:09;;;;;;;15.87;11.17;;;14.70;99.90;;;;;;5043408;28;20894;-59
2021/10/19 10:44:40;;;;;;;19.10;11.50;;;14.60;99.90;;;;;;5045021;28;20480;-62
2021/10/19 10:47:08;;;;;;;16.07;9.17;;;14.60;99.90;;;;;;5043295;28;20491;-60
2021/10/19 10:49:36;;;;;;;12.50;8.60;;;14.60;99.90;;;;;;5043231;28;21000;-60
2021/10/19 10:52:14;;;;;;;13.80;8.67;;;14.70;99.90;;;;;;5036432;28;20521;-59
2021/10/19 10:54:51;;;;;;;14.53;9.33;;;14.40;99.90;;;;;;5046223;28;20513;-59
2021/10/19 10:57:19;;;;;;;13.53;8.60;;;14.40;99.90;;;;;;5042657;28;21001;-59
2021/10/19 10:59:54;;;;;;;13.60;8.30;;;14.50;99.90;;;;;;5042885;28;20493;-59
2021/10/19 11:02:24;;;;;;;14.38;8.93;;;14.60;99.90;;;;;;5041351;28;20455;-59
2021/10/19 11:04:54;;;;;;;13.60;8.87;;;14.70;99.90;;;;;;5040581;28;20627;-59
2021/10/19 11:07:30;;;;;;;11.60;7.83;;;14.70;99.90;;;;;;5042790;28;20566;-59
2021/10/19 11:09:57;;;;;;;11.80;7.13;;;14.70;99.90;;;;;;5044286;28;20550;-59
2021/10/19 11:12:24;;;;;;;11.57;6.03;;;14.90;99.90;;;;;;5046657;28;20525;-59
2021/10/19 11:14:51;;;;;;;6.50;5.50;;;15.10;99.90;;;;;;5042086;28;20467;-60
2021/10/19 11:17:21;;;;;;;11.30;6.20;;;15.20;99.90;;;;;;5043164;28;20483;-60
2021/10/19 11:19:48;;;;;;;6.90;5.67;;;15.30;99.90;;;;;;5044907;28;20547;-59
2021/10/19 11:22:15;;;;;;;11.37;6.20;;;15.40;99.90;;;;;;5042292;28;20467;-60
2021/10/19 11:24:43;;;;;;;9.80;5.83;;;15.40;99.90;;;;;;5044222;28;20479;-59
2021/10/19 11:27:10;;;;;;;8.67;5.73;;;15.40;99.90;;;;;;5046345;28;20570;-59
2021/10/19 11:29:40;;;;;;;13.20;5.67;;;15.30;99.90;;;;;;5043419;28;20467;-60
2021/10/19 11:32:14;;;;;;;6.27;4.47;;;15.50;99.90;;;;;;5045809;28;20459;-59
2021/10/19 11:34:43;;;;;;;10.23;4.80;;;15.50;99.90;;;;;;5046527;28;20906;-59
2021/10/19 11:37:10;;;;;;;5.80;4.03;;;15.70;99.90;;;;;;5041603;28;21025;-59
2021/10/19 11:39:37;;;;;;;13.53;5.30;;;15.70;99.90;;;;;;5045218;28;20463;-60
2021/10/19 11:42:05;;;;;;;7.33;4.40;;;15.60;99.90;;;;;;5042909;28;20529;-59
2021/10/19 11:44:33;;;;;;;6.70;3.70;;;15.40;99.90;;;;;;5041628;28;20486;-60
2021/10/19 11:47:01;;;;;;;4.93;3.50;;;15.30;99.90;;;;;;5042122;28;20541;-59
2021/10/19 11:49:31;;;;;;;9.63;4.70;;;15.00;99.90;;;;;;5040806;28;20466;-59
2021/10/19 11:52:00;;;;;;;6.40;4.17;;;15.10;99.90;;;;;;5042174;28;20466;-59
2021/10/19 11:54:31;;;;;;;7.50;4.50;;;15.00;99.90;;;;;;5042692;28;20448;-59
2021/10/19 11:56:59;;;;;;;6.57;4.47;;;14.90;99.90;;;;;;5042525;28;20487;-59
2021/10/19 11:59:26;;;;;;;7.07;3.80;;;14.90;99.90;;;;;;5042057;28;20461;-59
2021/10/19 12:01:54;;;;;;;3.80;3.40;;;14.80;99.90;;;;;;5047624;28;20463;-59
2021/10/19 12:04:25;;;;;;;5.30;3.80;;;15.00;99.90;;;;;;5049745;28;20899;-59
2021/10/19 12:06:53;;;;;;;8.20;4.57;;;15.10;99.90;;;;;;5050973;28;20558;-59
2021/10/19 12:09:25;;;;;;;8.10;4.20;;;15.10;99.90;;;;;;5051365;28;20934;-59
2021/10/19 12:11:54;;;;;;;5.20;4.00;;;15.00;99.90;;;;;;5040180;28;20906;-59
2021/10/19 12:14:27;;;;;;;5.77;3.93;;;15.00;99.90;;;;;;5050991;28;20452;-59
2021/10/19 12:16:55;;;;;;;5.73;4.50;;;15.30;99.90;;;;;;5031614;28;20469;-59
2021/10/19 12:19:23;;;;;;;8.20;4.50;;;15.20;99.90;;;;;;5039061;28;20554;-59
2021/10/19 12:21:52;;;;;;;9.20;4.43;;;15.00;99.90;;;;;;5050388;28;20456;-59
2021/10/19 12:24:21;;;;;;;5.93;4.27;;;14.90;99.90;;;;;;5034616;28;21025;-59
2021/10/19 12:26:48;;;;;;;7.60;4.00;;;14.90;99.90;;;;;;5031514;28;20472;-59
2021/10/19 12:29:15;;;;;;;7.57;3.80;;;15.00;99.90;;;;;;5031504;28;20453;-59
2021/10/19 12:31:48;;;;;;;8.50;4.20;;;15.00;99.90;;;;;;5039983;28;20494;-59
2021/10/19 12:34:15;;;;;;;9.50;4.67;;;14.90;99.90;;;;;;5036280;28;20481;-59
2021/10/19 12:36:44;;;;;;;5.50;3.43;;;14.90;99.90;;;;;;5031538;28;20465;-60
2021/10/19 12:39:15;;;;;;;13.20;4.40;;;15.10;99.90;;;;;;5032589;28;20444;-59
2021/10/19 12:41:45;;;;;;;8.73;4.00;;;15.10;99.90;;;;;;5035205;28;20535;-59
2021/10/19 12:44:14;;;;;;;8.73;3.90;;;15.30;99.90;;;;;;5049344;28;20452;-59
2021/10/19 12:46:42;;;;;;;8.30;4.33;;;15.40;99.90;;;;;;5054528;28;20472;-60